Terminal Aerodrome Forecast
Issued by NWS Upton, NY

Current Version | Previous Version | Text Only | Print | Product List | Glossary On
Versions: 1 2 3 4 5 6 7 8 9 10 11 12 13 14 15 16 17 18 19 20 21 22 23 24 25 26 27 28 29 30 31 32 33
446
FTUS41 KOKX 281503 AAC
TAFLGA
TAF AMD
KLGA 281503Z 2815/2912 06008KT P6SM FEW035 SCT150 BKN250
     FM281900 13008KT P6SM SCT040 BKN250
     FM290200 07006KT P6SM SCT040 BKN120
     FM290500 05006KT 6SM -RA BR BKN035
     FM290800 03013G20KT 5SM -RA BR SCT020 OVC035
     FM291100 03016G26KT 3SM -RA BR BKN020=

USA.gov is the U.S. government's official web portal to all federal, state and local government web resources and services.